Time;durP1;ratioP1;P1;durP2;ratioP2;P2;SDS_P1;SDS_P2;PMS_P1;PMS_P2;Temp;Humidity;BMP_temperature;BMP_pressure;BME280_temperature;BME280_humidity;BME280_pressure;Samples;Min_cycle;Max_cycle;Signal;HPM_P1;HPM_P2
2023/05/09 00:00:09;;;;;;;6.13;5.63;;;19.50;68.20;;;;;;4956994;28;20288;-68
2023/05/09 00:02:40;;;;;;;5.78;5.32;;;19.50;68.10;;;;;;4940801;28;20185;-68
2023/05/09 00:05:07;;;;;;;5.85;5.35;;;19.50;68.20;;;;;;4973840;28;20209;-67
2023/05/09 00:07:33;;;;;;;6.10;5.50;;;19.50;68.10;;;;;;4964390;28;20185;-68
2023/05/09 00:09:59;;;;;;;5.72;5.22;;;19.50;68.20;;;;;;4956511;28;20189;-68
2023/05/09 00:12:27;;;;;;;5.93;5.40;;;19.50;68.10;;;;;;4956419;28;20209;-68
2023/05/09 00:14:55;;;;;;;6.03;5.53;;;19.50;68.10;;;;;;4956255;28;20213;-67
2023/05/09 00:17:25;;;;;;;5.78;5.32;;;19.50;68.10;;;;;;4956356;28;20197;-68
2023/05/09 00:19:51;;;;;;;6.00;5.45;;;19.50;68.10;;;;;;4956600;28;20181;-67
2023/05/09 00:22:20;;;;;;;6.15;5.65;;;19.50;68.10;;;;;;4969278;28;20190;-68
2023/05/09 00:24:49;;;;;;;5.97;5.47;;;19.50;68.10;;;;;;4956079;28;20256;-68
2023/05/09 00:27:15;;;;;;;6.03;5.53;;;19.50;68.10;;;;;;4956247;28;20194;-68
2023/05/09 00:29:42;;;;;;;5.93;5.40;;;19.50;68.10;;;;;;4963966;28;20192;-67
2023/05/09 00:32:08;;;;;;;5.97;5.43;;;19.50;68.00;;;;;;4956204;28;20210;-67
2023/05/09 00:34:34;;;;;;;5.38;4.97;;;19.50;68.00;;;;;;4956119;28;20209;-68
2023/05/09 00:37:00;;;;;;;6.20;5.70;;;19.50;68.00;;;;;;4940333;28;20186;-68
2023/05/09 00:39:26;;;;;;;5.75;5.15;;;19.50;68.00;;;;;;4956137;28;20192;-67
2023/05/09 00:41:55;;;;;;;6.15;5.65;;;19.50;68.00;;;;;;4956219;28;20190;-67
2023/05/09 00:44:20;;;;;;;6.38;5.78;;;19.50;68.00;;;;;;4955909;28;20220;-68
2023/05/09 00:46:46;;;;;;;6.53;5.93;;;19.40;67.90;;;;;;4956078;28;20182;-68
2023/05/09 00:49:12;;;;;;;6.00;5.40;;;19.40;67.90;;;;;;4956295;28;20201;-68
2023/05/09 00:51:40;;;;;;;6.13;5.63;;;19.40;67.90;;;;;;4939898;28;20266;-68
2023/05/09 00:54:07;;;;;;;5.80;5.30;;;19.40;67.80;;;;;;4973071;28;20197;-68
2023/05/09 00:56:33;;;;;;;5.97;5.47;;;19.40;68.60;;;;;;4973142;28;20217;-67
2023/05/09 00:58:59;;;;;;;5.45;4.95;;;19.40;67.80;;;;;;4956216;28;20232;-68
2023/05/09 01:01:25;;;;;;;5.60;5.10;;;19.50;68.00;;;;;;4955790;28;20190;-68
2023/05/09 01:03:53;;;;;;;5.72;5.22;;;19.40;67.80;;;;;;4955899;28;20193;-68
2023/05/09 01:06:38;;;;;;;5.35;4.85;;;19.40;67.80;;;;;;4955999;28;20210;-68
2023/05/09 01:09:34;;;;;;;5.95;5.45;;;19.40;67.80;;;;;;4955936;28;20197;-68
2023/05/09 01:12:46;;;;;;;6.35;5.75;;;19.40;67.80;;;;;;4955733;28;20209;-67
2023/05/09 01:15:30;;;;;;;5.40;5.00;;;19.40;67.80;;;;;;4955499;28;20208;-68
2023/05/09 01:18:34;;;;;;;5.60;5.10;;;19.40;67.80;;;;;;4956101;28;20189;-67
2023/05/09 01:21:10;;;;;;;5.75;5.25;;;19.40;67.80;;;;;;4933168;28;20288;-68
2023/05/09 01:24:18;;;;;;;5.60;5.10;;;19.40;67.80;;;;;;4955762;28;20203;-67
2023/05/09 01:27:18;;;;;;;6.00;5.40;;;19.40;67.80;;;;;;4987720;28;20194;-68
2023/05/09 01:29:49;;;;;;;5.78;5.28;;;19.40;67.70;;;;;;4939582;28;20195;-68
2023/05/09 01:32:20;;;;;;;5.95;5.45;;;19.40;67.80;;;;;;4959134;28;20213;-67
2023/05/09 01:34:50;;;;;;;5.60;5.10;;;19.40;67.80;;;;;;4939679;28;20202;-67
2023/05/09 01:37:20;;;;;;;5.90;5.40;;;19.40;67.80;;;;;;4955459;28;20682;-68
2023/05/09 01:39:52;;;;;;;6.00;5.50;;;19.40;67.80;;;;;;4971317;28;20182;-68
2023/05/09 01:42:20;;;;;;;5.25;4.75;;;19.40;67.70;;;;;;4956476;28;20194;-68
2023/05/09 01:44:48;;;;;;;5.20;4.80;;;19.40;67.70;;;;;;4959183;28;20237;-66
2023/05/09 01:47:18;;;;;;;5.72;5.22;;;19.40;67.70;;;;;;4959000;28;20251;-68
2023/05/09 01:49:46;;;;;;;5.68;5.18;;;19.40;67.60;;;;;;4958929;28;20189;-67
2023/05/09 01:52:18;;;;;;;6.05;5.10;;;19.40;67.60;;;;;;4967284;28;20222;-67
2023/05/09 01:54:45;;;;;;;5.53;5.10;;;19.40;67.60;;;;;;4958695;28;20312;-68
2023/05/09 01:57:13;;;;;;;5.45;5.05;;;19.40;67.60;;;;;;4959143;28;20577;-68
2023/05/09 01:59:44;;;;;;;6.15;5.57;;;19.40;67.60;;;;;;4944259;28;20178;-68
2023/05/09 02:02:11;;;;;;;5.47;4.97;;;19.40;67.60;;;;;;4958876;28;20196;-68
2023/05/09 02:04:42;;;;;;;5.53;5.03;;;19.40;67.60;;;;;;4958538;28;20213;-67
2023/05/09 02:07:10;;;;;;;5.40;5.00;;;19.40;67.60;;;;;;4942787;28;20240;-66
2023/05/09 02:09:36;;;;;;;5.70;5.15;;;19.40;67.50;;;;;;4958837;28;20189;-67
2023/05/09 02:12:03;;;;;;;6.32;5.78;;;19.40;67.60;;;;;;4958496;28;20198;-68
2023/05/09 02:14:30;;;;;;;5.38;4.97;;;19.40;67.60;;;;;;4975864;28;20235;-67
2023/05/09 02:16:56;;;;;;;5.30;4.90;;;19.40;67.60;;;;;;4961909;28;20173;-68
2023/05/09 02:19:22;;;;;;;5.60;5.10;;;19.40;67.60;;;;;;4971382;28;20217;-68
2023/05/09 02:21:48;;;;;;;5.32;4.82;;;19.40;67.50;;;;;;4957778;28;20189;-68
2023/05/09 02:24:14;;;;;;;5.32;4.93;;;19.40;67.50;;;;;;4957105;28;20194;-67
2023/05/09 02:26:41;;;;;;;5.22;4.82;;;19.40;67.50;;;;;;4958178;28;20194;-67
2023/05/09 02:29:09;;;;;;;5.00;4.60;;;19.40;67.50;;;;;;4958638;28;20298;-68
2023/05/09 02:31:39;;;;;;;5.47;4.97;;;19.40;67.50;;;;;;4957933;28;20209;-67
2023/05/09 02:34:06;;;;;;;6.32;5.30;;;19.40;67.50;;;;;;4942195;28;20212;-67
2023/05/09 02:36:34;;;;;;;5.60;5.20;;;19.40;67.50;;;;;;4982342;28;20182;-67
2023/05/09 02:39:00;;;;;;;5.28;4.88;;;19.40;67.50;;;;;;4975402;28;20182;-67
2023/05/09 02:41:29;;;;;;;5.30;4.88;;;19.30;67.30;;;;;;4958285;28;20197;-68
2023/05/09 02:43:55;;;;;;;5.38;4.88;;;19.40;67.40;;;;;;4974229;28;20277;-68
2023/05/09 02:46:21;;;;;;;4.78;4.38;;;19.30;67.30;;;;;;4957872;28;20228;-67
2023/05/09 02:48:46;;;;;;;4.90;4.50;;;19.40;67.40;;;;;;4957932;28;20185;-68
2023/05/09 02:51:12;;;;;;;5.53;5.13;;;19.40;67.40;;;;;;4942233;28;20205;-67
2023/05/09 02:53:38;;;;;;;5.03;4.63;;;19.30;67.30;;;;;;4959986;28;20189;-67
2023/05/09 02:56:04;;;;;;;4.90;4.50;;;19.30;67.20;;;;;;4970746;28;20297;-68
2023/05/09 02:58:30;;;;;;;5.00;4.60;;;19.30;67.30;;;;;;4954805;28;20193;-66
2023/05/09 03:00:56;;;;;;;5.22;4.82;;;19.30;67.30;;;;;;4941647;28;20186;-68
2023/05/09 03:03:22;;;;;;;5.25;4.80;;;19.40;67.40;;;;;;4957701;28;20204;-67
2023/05/09 03:05:48;;;;;;;4.65;4.35;;;19.30;67.30;;;;;;4957703;28;20229;-66
2023/05/09 03:08:14;;;;;;;5.22;4.72;;;19.30;67.30;;;;;;4970774;28;20190;-67
2023/05/09 03:10:40;;;;;;;5.00;4.60;;;19.30;67.30;;;;;;4963688;28;20191;-68
2023/05/09 03:13:07;;;;;;;4.55;4.15;;;19.30;67.20;;;;;;4957577;28;20249;-68
2023/05/09 03:15:33;;;;;;;5.00;4.60;;;19.30;67.20;;;;;;4957115;28;20268;-66
2023/05/09 03:17:59;;;;;;;4.90;4.50;;;19.30;67.30;;;;;;4973546;28;20182;-67
2023/05/09 03:20:26;;;;;;;4.47;4.18;;;19.30;67.20;;;;;;4957666;28;20190;-68
2023/05/09 03:22:52;;;;;;;5.18;4.78;;;19.30;67.10;;;;;;4973307;28;20200;-67
2023/05/09 03:25:18;;;;;;;5.90;5.40;;;19.30;67.10;;;;;;4974421;28;20595;-68
2023/05/09 03:27:44;;;;;;;4.53;4.20;;;19.30;67.10;;;;;;4941560;28;20185;-67
2023/05/09 03:30:13;;;;;;;4.40;4.10;;;19.30;67.10;;;;;;4957267;28;20224;-68
2023/05/09 03:32:40;;;;;;;4.95;4.55;;;19.30;67.10;;;;;;4957212;28;20309;-67
2023/05/09 03:35:07;;;;;;;4.07;3.78;;;19.30;67.10;;;;;;4957337;28;20297;-67
2023/05/09 03:37:32;;;;;;;4.88;4.47;;;19.30;67.10;;;;;;4957102;28;20237;-67
2023/05/09 03:39:58;;;;;;;4.93;4.55;;;19.30;67.10;;;;;;4957263;28;20182;-68
2023/05/09 03:42:25;;;;;;;4.63;4.22;;;19.30;67.10;;;;;;4957108;28;20221;-68
2023/05/09 03:44:55;;;;;;;4.85;4.45;;;19.30;67.10;;;;;;4956780;28;20288;-68
2023/05/09 03:47:21;;;;;;;4.32;4.03;;;19.30;67.10;;;;;;4957374;28;20273;-68
2023/05/09 03:49:48;;;;;;;4.50;4.20;;;19.30;67.10;;;;;;4957181;28;20185;-67
2023/05/09 03:52:17;;;;;;;4.88;4.47;;;19.30;67.10;;;;;;4956744;28;20249;-68
2023/05/09 03:54:43;;;;;;;4.35;4.05;;;19.30;67.20;;;;;;4956465;28;20217;-67
2023/05/09 03:57:09;;;;;;;4.93;4.53;;;19.30;67.10;;;;;;4956926;28;20683;-67
2023/05/09 03:59:35;;;;;;;4.45;4.15;;;19.30;67.10;;;;;;4956620;28;20188;-67
2023/05/09 04:02:02;;;;;;;4.47;4.18;;;19.30;67.10;;;;;;4956756;28;20192;-68
2023/05/09 04:04:28;;;;;;;4.60;4.30;;;19.30;67.10;;;;;;4969179;28;20285;-67
2023/05/09 04:06:55;;;;;;;4.50;4.20;;;19.30;67.10;;;;;;4955973;28;20213;-68
2023/05/09 04:09:20;;;;;;;5.22;4.82;;;19.30;67.10;;;;;;4940880;28;20181;-67
2023/05/09 04:11:47;;;;;;;4.93;4.53;;;19.30;67.10;;;;;;4972617;28;20299;-68
2023/05/09 04:14:14;;;;;;;5.25;4.75;;;19.30;67.10;;;;;;4940705;28;20251;-68
2023/05/09 04:16:41;;;;;;;4.90;4.50;;;19.30;67.10;;;;;;4988566;28;20181;-68
2023/05/09 04:19:06;;;;;;;6.20;5.60;;;19.30;67.10;;;;;;4956416;28;20185;-67
2023/05/09 04:21:32;;;;;;;5.32;4.82;;;19.30;67.10;;;;;;4940624;28;20204;-68
2023/05/09 04:24:00;;;;;;;4.65;4.25;;;19.30;67.10;;;;;;4956127;28;20189;-67
2023/05/09 04:26:37;;;;;;;4.88;4.47;;;19.30;67.10;;;;;;4956398;28;20193;-68
2023/05/09 04:29:04;;;;;;;4.60;4.20;;;19.30;67.10;;;;;;4988430;28;20716;-68
2023/05/09 04:31:30;;;;;;;4.80;4.40;;;19.30;67.10;;;;;;4956346;28;20259;-67
2023/05/09 04:33:57;;;;;;;4.88;4.47;;;19.30;67.10;;;;;;4972489;28;20190;-68
2023/05/09 04:36:26;;;;;;;5.28;4.85;;;19.30;67.20;;;;;;4955927;28;20186;-68
2023/05/09 04:38:53;;;;;;;5.47;5.07;;;19.30;67.20;;;;;;4956166;28;20228;-68
2023/05/09 04:41:23;;;;;;;5.80;5.30;;;19.30;67.20;;;;;;4972915;28;20190;-68
2023/05/09 04:43:49;;;;;;;6.30;5.70;;;19.30;67.20;;;;;;4972093;28;20193;-67
2023/05/09 04:46:15;;;;;;;5.53;5.13;;;19.30;67.10;;;;;;4956150;28;20256;-68
2023/05/09 04:48:41;;;;;;;5.53;5.03;;;19.30;67.20;;;;;;4956348;28;20189;-68
2023/05/09 04:51:07;;;;;;;5.97;5.47;;;19.30;67.10;;;;;;4955925;28;20213;-68
2023/05/09 04:53:33;;;;;;;5.78;5.28;;;19.30;67.20;;;;;;4956321;28;20211;-66
2023/05/09 04:55:59;;;;;;;5.93;5.38;;;19.30;67.10;;;;;;4955777;28;20220;-68
2023/05/09 04:58:25;;;;;;;5.82;5.32;;;19.30;67.20;;;;;;4956296;28;20185;-68
2023/05/09 05:00:52;;;;;;;5.95;5.43;;;19.30;67.20;;;;;;4956009;28;20189;-68
2023/05/09 05:03:18;;;;;;;5.68;5.18;;;19.30;67.10;;;;;;4956040;28;20201;-68
2023/05/09 05:05:44;;;;;;;5.57;5.07;;;19.30;67.10;;;;;;4955879;28;20280;-68
2023/05/09 05:08:10;;;;;;;5.70;5.07;;;19.30;67.20;;;;;;4955984;28;20185;-68
2023/05/09 05:10:38;;;;;;;6.13;5.53;;;19.30;67.20;;;;;;4956194;28;20251;-68
2023/05/09 05:13:07;;;;;;;6.22;5.68;;;19.30;67.10;;;;;;4955910;28;20280;-68
2023/05/09 05:15:36;;;;;;;5.97;5.38;;;19.30;67.10;;;;;;4971751;28;20213;-68
2023/05/09 05:18:03;;;;;;;5.55;5.05;;;19.30;67.10;;;;;;4957908;28;20660;-68
2023/05/09 05:20:33;;;;;;;6.00;5.50;;;19.30;67.10;;;;;;4959768;28;20661;-68
2023/05/09 05:22:59;;;;;;;6.40;5.80;;;19.30;67.10;;;;;;4959540;28;20243;-68
2023/05/09 05:25:25;;;;;;;6.05;5.55;;;19.30;67.10;;;;;;4959324;28;20205;-68
2023/05/09 05:27:52;;;;;;;6.60;5.90;;;19.30;67.20;;;;;;4943813;28;20189;-69
2023/05/09 05:30:19;;;;;;;7.25;6.53;;;19.30;67.10;;;;;;4959723;28;20193;-68
2023/05/09 05:32:45;;;;;;;7.55;6.43;;;19.30;67.20;;;;;;4959367;28;20386;-68
2023/05/09 05:35:14;;;;;;;7.35;6.22;;;19.30;67.10;;;;;;4943185;28;20211;-68
2023/05/09 05:37:40;;;;;;;6.45;5.82;;;19.30;67.10;;;;;;4959241;28;20186;-68
2023/05/09 05:40:07;;;;;;;6.88;6.20;;;19.30;67.10;;;;;;4959282;28;20190;-69
2023/05/09 05:42:35;;;;;;;6.22;5.72;;;19.30;67.10;;;;;;4959255;28;20194;-67
2023/05/09 05:45:04;;;;;;;7.10;6.40;;;19.30;67.10;;;;;;4958971;28;20215;-68
2023/05/09 05:47:34;;;;;;;6.45;5.85;;;19.30;67.20;;;;;;4963253;28;20208;-68
2023/05/09 05:50:02;;;;;;;6.72;6.13;;;19.30;67.10;;;;;;4943560;28;20189;-68
2023/05/09 05:52:29;;;;;;;6.53;5.80;;;19.30;67.20;;;;;;4958828;28;20576;-68
2023/05/09 05:54:56;;;;;;;6.78;6.18;;;19.30;67.10;;;;;;4958437;28;20217;-67
2023/05/09 05:57:21;;;;;;;6.85;5.90;;;19.30;67.10;;;;;;4942947;28;20196;-67
2023/05/09 05:59:49;;;;;;;6.78;6.18;;;19.30;67.10;;;;;;4959130;28;20545;-67
2023/05/09 06:02:17;;;;;;;6.93;6.32;;;19.40;67.10;;;;;;4942955;28;20196;-68
2023/05/09 06:04:43;;;;;;;7.07;6.35;;;19.40;67.10;;;;;;4958879;28;20241;-68
2023/05/09 06:07:11;;;;;;;6.85;6.15;;;19.40;67.20;;;;;;4958945;28;20192;-68
2023/05/09 06:09:37;;;;;;;6.80;6.20;;;19.40;67.10;;;;;;4961305;28;20190;-68
2023/05/09 06:12:04;;;;;;;6.85;6.20;;;19.40;67.10;;;;;;4958822;28;20214;-68
2023/05/09 06:14:29;;;;;;;6.20;5.70;;;19.40;67.00;;;;;;4958739;28;20264;-69
2023/05/09 06:16:57;;;;;;;6.07;5.47;;;19.40;67.10;;;;;;4958213;28;20669;-69
2023/05/09 06:19:23;;;;;;;7.05;6.35;;;19.40;67.10;;;;;;4974623;28;20181;-68
2023/05/09 06:21:48;;;;;;;6.43;5.88;;;19.40;67.10;;;;;;4958305;28;20197;-69
2023/05/09 06:24:14;;;;;;;7.07;6.32;;;19.40;67.10;;;;;;4958719;28;20197;-68
2023/05/09 06:26:40;;;;;;;7.10;6.40;;;19.40;67.10;;;;;;4958457;28;20232;-68
2023/05/09 06:29:06;;;;;;;6.80;6.10;;;19.40;67.10;;;;;;4957980;28;20197;-69
2023/05/09 06:31:37;;;;;;;6.95;6.32;;;19.40;67.00;;;;;;4974645;28;20209;-68
2023/05/09 06:34:06;;;;;;;6.82;6.22;;;19.40;67.00;;;;;;4957979;28;20186;-67
2023/05/09 06:36:32;;;;;;;7.00;6.40;;;19.40;67.00;;;;;;4957995;28;20189;-68
2023/05/09 06:38:58;;;;;;;6.80;6.20;;;19.50;67.10;;;;;;4958421;28;20209;-68
2023/05/09 06:41:24;;;;;;;6.78;6.18;;;19.40;67.00;;;;;;4971234;28;20205;-68
2023/05/09 06:43:51;;;;;;;7.85;7.15;;;19.40;67.50;;;;;;4972380;28;20252;-67
2023/05/09 06:46:18;;;;;;;7.45;6.75;;;19.50;67.10;;;;;;4957967;28;20225;-68
2023/05/09 06:48:43;;;;;;;7.38;6.68;;;19.50;67.10;;;;;;4958033;28;20189;-68
2023/05/09 06:51:10;;;;;;;8.10;7.30;;;19.50;67.10;;;;;;4958095;28;20220;-67
2023/05/09 06:53:36;;;;;;;8.05;7.32;;;19.50;67.10;;;;;;4957905;28;20194;-69
2023/05/09 06:56:03;;;;;;;10.32;9.35;;;19.50;67.10;;;;;;4957328;28;20221;-68
2023/05/09 06:58:28;;;;;;;8.77;7.97;;;19.50;67.00;;;;;;4973931;28;20185;-68
2023/05/09 07:00:54;;;;;;;8.68;7.78;;;19.50;67.00;;;;;;4974064;28;20279;-68
2023/05/09 07:03:20;;;;;;;9.27;8.48;;;19.50;67.00;;;;;;4958077;28;20272;-68
2023/05/09 07:05:46;;;;;;;8.75;7.80;;;19.60;67.00;;;;;;4970780;28;20282;-69
2023/05/09 07:08:12;;;;;;;7.82;7.13;;;19.60;67.10;;;;;;4957925;28;20205;-67
2023/05/09 07:10:38;;;;;;;8.73;7.93;;;19.60;67.10;;;;;;4957738;28;20260;-67
2023/05/09 07:13:05;;;;;;;9.45;8.55;;;19.50;67.90;;;;;;4973199;28;20232;-67
2023/05/09 07:15:31;;;;;;;9.75;8.75;;;19.60;67.30;;;;;;4973690;28;20206;-68
2023/05/09 07:17:57;;;;;;;10.07;9.10;;;19.50;67.20;;;;;;4957422;28;20193;-67
2023/05/09 07:20:22;;;;;;;10.32;9.30;;;19.50;67.10;;;;;;4957736;28;20186;-68
2023/05/09 07:22:48;;;;;;;10.52;9.50;;;19.60;67.20;;;;;;4957597;28;20233;-68
2023/05/09 07:25:14;;;;;;;9.98;8.98;;;19.60;67.10;;;;;;4957146;28;20216;-68
2023/05/09 07:27:40;;;;;;;9.65;8.75;;;19.60;67.20;;;;;;4957765;28;20197;-68
2023/05/09 07:30:08;;;;;;;9.88;8.98;;;19.60;67.20;;;;;;4957250;28;20205;-68
2023/05/09 07:32:34;;;;;;;12.13;10.82;;;19.60;67.10;;;;;;4941144;28;20213;-68
2023/05/09 07:35:00;;;;;;;11.20;9.55;;;19.60;67.10;;;;;;4957212;28;20210;-68
2023/05/09 07:37:25;;;;;;;9.73;8.82;;;19.60;67.20;;;;;;4957379;28;20182;-68
2023/05/09 07:39:51;;;;;;;9.55;8.63;;;19.60;67.20;;;;;;4956282;28;20320;-68
2023/05/09 07:42:17;;;;;;;11.15;10.07;;;19.60;67.20;;;;;;4957280;28;20194;-68
2023/05/09 07:44:43;;;;;;;10.10;9.10;;;19.60;67.30;;;;;;4957165;28;20209;-68
2023/05/09 07:47:08;;;;;;;9.93;9.02;;;19.60;67.10;;;;;;4964748;28;20276;-67
2023/05/09 07:49:34;;;;;;;9.65;8.75;;;19.60;67.10;;;;;;4957204;28;20186;-67
2023/05/09 07:52:00;;;;;;;8.88;8.05;;;19.70;67.20;;;;;;4956748;28;20290;-68
2023/05/09 07:54:26;;;;;;;9.02;8.23;;;19.70;67.10;;;;;;4972831;28;20690;-69
2023/05/09 07:56:53;;;;;;;9.15;8.27;;;19.70;67.00;;;;;;4956774;28;20198;-68
2023/05/09 07:59:19;;;;;;;8.38;7.68;;;19.70;66.90;;;;;;4956764;28;20192;-67
2023/05/09 08:01:45;;;;;;;8.65;7.85;;;19.80;67.00;;;;;;4957092;28;20181;-69
2023/05/09 08:04:11;;;;;;;9.82;8.88;;;19.80;66.90;;;;;;4956823;28;20204;-68
2023/05/09 08:06:36;;;;;;;9.27;8.38;;;19.80;66.80;;;;;;4956494;28;20186;-67
2023/05/09 08:09:03;;;;;;;8.65;7.85;;;19.80;66.70;;;;;;4940685;28;20708;-68
2023/05/09 08:11:32;;;;;;;8.98;8.18;;;19.80;66.90;;;;;;4956458;28;20209;-68
2023/05/09 08:13:58;;;;;;;9.23;8.43;;;19.80;66.90;;;;;;4940723;28;20277;-68
2023/05/09 08:16:23;;;;;;;8.70;7.88;;;19.70;66.90;;;;;;4956005;28;20211;-68
2023/05/09 08:18:49;;;;;;;8.38;7.57;;;19.80;67.00;;;;;;4956523;28;20301;-68
2023/05/09 08:21:15;;;;;;;9.60;8.55;;;19.80;67.10;;;;;;4956494;28;20190;-67
2023/05/09 08:23:40;;;;;;;8.88;7.80;;;19.80;67.10;;;;;;4956366;28;20672;-68
2023/05/09 08:26:06;;;;;;;7.72;7.00;;;19.80;67.10;;;;;;4956180;28;20223;-68
2023/05/09 08:28:32;;;;;;;8.95;8.15;;;19.80;67.30;;;;;;4956438;28;20214;-69
2023/05/09 08:30:58;;;;;;;8.63;7.82;;;19.80;67.30;;;;;;4940161;28;20264;-69
2023/05/09 08:33:24;;;;;;;8.52;7.65;;;19.80;67.20;;;;;;4940375;28;20181;-68
2023/05/09 08:35:53;;;;;;;8.15;7.45;;;19.80;67.30;;;;;;4955929;28;20209;-68
2023/05/09 08:38:20;;;;;;;8.70;7.82;;;19.80;67.30;;;;;;4956243;28;20189;-68
2023/05/09 08:40:46;;;;;;;8.52;7.72;;;19.80;67.20;;;;;;4956259;28;20277;-68
2023/05/09 08:43:16;;;;;;;8.35;7.60;;;19.80;67.30;;;;;;4956123;28;20244;-68
2023/05/09 08:45:49;;;;;;;7.45;6.70;;;19.80;67.40;;;;;;4956095;28;20550;-68
2023/05/09 08:48:16;;;;;;;8.27;7.50;;;19.80;67.30;;;;;;4940480;28;20281;-68
2023/05/09 08:50:43;;;;;;;7.22;6.53;;;19.80;67.30;;;;;;4959643;28;20186;-68
2023/05/09 08:53:10;;;;;;;7.95;7.15;;;19.80;67.30;;;;;;4973241;28;20186;-68
2023/05/09 08:55:37;;;;;;;6.97;6.35;;;19.80;67.40;;;;;;4955591;28;20375;-67
2023/05/09 08:58:03;;;;;;;7.25;6.65;;;19.80;67.40;;;;;;4939793;28;20186;-68
2023/05/09 09:00:31;;;;;;;6.72;6.13;;;19.80;67.40;;;;;;4988303;28;20212;-68
2023/05/09 09:03:02;;;;;;;6.47;5.97;;;19.80;67.40;;;;;;4955838;28;20276;-67
2023/05/09 09:05:32;;;;;;;6.95;6.28;;;19.80;67.40;;;;;;4955650;28;20214;-68
2023/05/09 09:07:58;;;;;;;6.43;5.82;;;19.80;67.30;;;;;;4956021;28;20189;-68
2023/05/09 09:10:30;;;;;;;7.03;6.43;;;19.80;67.40;;;;;;4939931;28;20244;-68
2023/05/09 09:12:58;;;;;;;8.70;6.78;;;19.80;67.30;;;;;;4971766;28;20617;-68
2023/05/09 09:15:32;;;;;;;6.68;6.07;;;19.80;68.10;;;;;;4955546;28;20216;-68
2023/05/09 09:18:02;;;;;;;6.82;6.22;;;19.80;67.40;;;;;;4955772;28;20186;-68
2023/05/09 09:20:33;;;;;;;7.68;6.97;;;19.80;67.40;;;;;;4971960;28;20209;-68
2023/05/09 09:23:03;;;;;;;6.35;5.75;;;19.80;67.30;;;;;;4971757;28;20201;-68
2023/05/09 09:25:29;;;;;;;6.80;6.10;;;19.80;67.40;;;;;;4939864;28;20213;-68
2023/05/09 09:27:55;;;;;;;6.50;6.00;;;19.80;67.40;;;;;;4955639;28;20320;-68
2023/05/09 09:30:26;;;;;;;6.05;5.55;;;19.80;67.40;;;;;;4955732;28;20197;-67
2023/05/09 09:32:52;;;;;;;6.43;5.90;;;19.80;67.40;;;;;;4955899;28;20220;-67
2023/05/09 09:35:19;;;;;;;6.35;5.80;;;19.80;67.50;;;;;;4952576;29;20206;-68
2023/05/09 09:37:44;;;;;;;5.57;5.07;;;19.80;67.50;;;;;;4951604;28;20182;-68
2023/05/09 09:40:13;;;;;;;6.40;5.80;;;19.80;67.70;;;;;;4955605;28;20190;-68
2023/05/09 09:42:44;;;;;;;6.00;5.35;;;19.80;67.80;;;;;;4956021;28;20185;-68
2023/05/09 09:45:15;;;;;;;5.85;5.30;;;19.80;67.70;;;;;;4955770;28;20209;-68
2023/05/09 09:47:46;;;;;;;5.45;5.00;;;19.80;67.90;;;;;;4952288;28;20214;-69
2023/05/09 09:50:14;;;;;;;5.70;5.20;;;19.90;67.90;;;;;;4954961;28;20197;-68
2023/05/09 09:52:55;;;;;;;5.38;4.97;;;19.80;67.70;;;;;;4955429;28;20209;-68
2023/05/09 09:55:23;;;;;;;6.28;5.60;;;19.80;67.60;;;;;;4955321;28;20697;-68
2023/05/09 09:57:50;;;;;;;6.93;5.28;;;19.80;67.70;;;;;;4955473;28;20240;-68
2023/05/09 10:00:23;;;;;;;6.00;5.45;;;19.90;67.80;;;;;;4955552;28;20236;-68
2023/05/09 10:02:53;;;;;;;5.63;5.13;;;19.90;67.70;;;;;;4955546;28;20244;-68
2023/05/09 10:05:28;;;;;;;5.78;5.28;;;19.90;67.80;;;;;;4991012;28;20260;-68
2023/05/09 10:07:56;;;;;;;6.15;5.63;;;19.90;67.80;;;;;;4974820;28;20680;-68
2023/05/09 10:10:24;;;;;;;6.00;5.50;;;19.90;67.90;;;;;;4943953;28;20193;-69
2023/05/09 10:12:55;;;;;;;5.97;5.47;;;19.90;67.80;;;;;;4958735;28;20213;-68
2023/05/09 10:15:22;;;;;;;5.50;5.00;;;19.90;67.90;;;;;;4942567;28;20210;-68
2023/05/09 10:17:55;;;;;;;5.43;4.85;;;19.90;68.00;;;;;;4958693;28;20194;-68
2023/05/09 10:20:21;;;;;;;5.32;4.93;;;19.90;68.00;;;;;;4975934;28;20189;-68
2023/05/09 10:22:49;;;;;;;5.60;5.13;;;19.90;68.10;;;;;;4975793;28;20273;-69
2023/05/09 10:25:21;;;;;;;6.18;4.85;;;19.90;67.90;;;;;;4990178;28;20229;-69
2023/05/09 10:27:48;;;;;;;5.03;4.63;;;19.90;67.90;;;;;;4958434;28;20186;-68
2023/05/09 10:30:36;;;;;;;4.95;4.55;;;19.90;67.90;;;;;;4958021;28;20192;-68
2023/05/09 10:33:08;;;;;;;4.82;4.43;;;19.90;68.00;;;;;;4942559;28;20813;-69
2023/05/09 10:35:46;;;;;;;4.32;4.00;;;19.90;68.10;;;;;;4971064;28;20690;-69
2023/05/09 10:38:12;;;;;;;4.60;4.20;;;19.90;67.90;;;;;;4957097;28;20194;-68
2023/05/09 10:40:46;;;;;;;4.35;4.05;;;19.90;68.00;;;;;;4958198;28;20193;-67
2023/05/09 10:43:13;;;;;;;5.38;4.47;;;19.90;68.00;;;;;;4942448;28;20188;-68
2023/05/09 10:45:40;;;;;;;4.07;3.78;;;19.90;67.90;;;;;;4941896;28;20201;-68
2023/05/09 10:48:07;;;;;;;4.60;4.30;;;19.90;67.90;;;;;;4958315;28;20633;-68
2023/05/09 10:50:35;;;;;;;4.15;3.85;;;19.90;68.00;;;;;;4926504;28;20562;-67
2023/05/09 10:53:06;;;;;;;4.57;4.18;;;19.90;68.00;;;;;;4957879;28;20220;-68
2023/05/09 10:55:48;;;;;;;3.85;3.55;;;19.90;68.00;;;;;;4989992;28;20217;-68
2023/05/09 10:58:21;;;;;;;4.88;4.38;;;19.90;68.00;;;;;;4975445;28;20188;-67
2023/05/09 11:00:49;;;;;;;4.53;4.20;;;19.90;68.00;;;;;;4942212;28;20220;-67
2023/05/09 11:03:17;;;;;;;3.90;3.60;;;19.90;68.00;;;;;;4941940;28;20186;-67
2023/05/09 11:05:49;;;;;;;4.20;3.80;;;19.90;68.00;;;;;;4957548;28;20216;-67
2023/05/09 11:08:27;;;;;;;4.63;4.10;;;19.90;68.10;;;;;;4975127;28;20202;-68
2023/05/09 11:11:02;;;;;;;4.38;4.00;;;19.90;68.10;;;;;;4957519;28;20200;-67
2023/05/09 11:13:37;;;;;;;6.28;4.13;;;19.90;68.30;;;;;;4957543;28;20177;-67
2023/05/09 11:16:07;;;;;;;4.78;3.95;;;19.90;68.50;;;;;;4974587;28;20213;-67
2023/05/09 11:18:33;;;;;;;4.97;4.47;;;19.90;68.40;;;;;;4941943;28;20185;-67
2023/05/09 11:21:07;;;;;;;4.70;4.30;;;19.90;68.20;;;;;;4957390;28;20174;-68
2023/05/09 11:23:32;;;;;;;4.05;3.70;;;19.90;68.10;;;;;;4957525;28;20727;-67
2023/05/09 11:26:07;;;;;;;4.20;3.90;;;19.90;68.10;;;;;;4957182;28;20296;-68
2023/05/09 11:28:36;;;;;;;4.85;4.20;;;19.90;68.10;;;;;;4941518;28;20212;-68
2023/05/09 11:31:22;;;;;;;4.35;3.95;;;19.90;68.00;;;;;;4974619;28;20181;-67
2023/05/09 11:33:55;;;;;;;4.07;3.67;;;20.00;68.20;;;;;;4957039;28;20209;-68
2023/05/09 11:36:26;;;;;;;4.47;4.10;;;19.90;68.00;;;;;;4956959;28;20252;-68
2023/05/09 11:39:23;;;;;;;3.83;3.53;;;19.90;68.10;;;;;;4941449;28;20181;-67
2023/05/09 11:41:50;;;;;;;4.10;3.80;;;20.00;68.10;;;;;;4956450;28;20197;-67
2023/05/09 11:44:20;;;;;;;4.18;3.80;;;20.00;68.20;;;;;;4956878;28;20190;-68
2023/05/09 11:46:47;;;;;;;3.95;3.65;;;20.00;68.20;;;;;;4972968;28;20196;-67
2023/05/09 11:49:14;;;;;;;3.67;3.38;;;20.00;68.10;;;;;;4974561;28;20288;-67
2023/05/09 11:51:40;;;;;;;3.85;3.55;;;20.00;68.10;;;;;;4957210;28;20677;-67
2023/05/09 11:54:07;;;;;;;5.85;3.45;;;20.00;68.10;;;;;;4974207;28;20268;-66
2023/05/09 11:56:36;;;;;;;3.60;3.30;;;20.00;68.10;;;;;;4956864;28;20316;-67
2023/05/09 11:59:02;;;;;;;3.65;3.35;;;20.00;68.10;;;;;;4970174;28;20182;-67
2023/05/09 12:01:31;;;;;;;4.28;3.90;;;20.00;68.00;;;;;;4969120;28;20183;-68
2023/05/09 12:03:58;;;;;;;3.50;3.20;;;20.00;68.10;;;;;;4953036;28;20284;-68
2023/05/09 12:06:28;;;;;;;3.72;3.42;;;20.00;68.10;;;;;;4956439;28;20292;-68
2023/05/09 12:08:56;;;;;;;3.65;3.42;;;20.00;68.00;;;;;;4956778;28;20205;-67
2023/05/09 12:11:23;;;;;;;3.70;3.22;;;20.00;68.10;;;;;;4940680;28;20291;-68
2023/05/09 12:13:51;;;;;;;3.75;3.45;;;20.00;68.00;;;;;;4956468;28;20657;-67
2023/05/09 12:16:19;;;;;;;3.45;3.15;;;20.00;68.00;;;;;;4956219;28;20220;-68
2023/05/09 12:18:51;;;;;;;3.47;3.28;;;20.00;68.10;;;;;;4956605;28;20225;-67
2023/05/09 12:21:18;;;;;;;4.00;3.30;;;20.00;68.00;;;;;;4973607;28;20197;-68
2023/05/09 12:23:46;;;;;;;3.78;3.47;;;20.00;68.00;;;;;;4956646;28;20188;-68
2023/05/09 12:26:12;;;;;;;3.38;3.05;;;20.00;68.10;;;;;;4970236;28;20217;-68
2023/05/09 12:28:38;;;;;;;3.63;3.33;;;20.00;68.10;;;;;;4940383;28;20189;-67
2023/05/09 12:31:05;;;;;;;3.30;3.10;;;20.00;68.50;;;;;;4956168;28;20181;-67
2023/05/09 12:33:32;;;;;;;3.30;3.00;;;20.00;68.30;;;;;;4956333;28;20182;-68
2023/05/09 12:36:04;;;;;;;3.95;3.10;;;20.00;68.10;;;;;;4956186;28;20288;-67
2023/05/09 12:38:30;;;;;;;3.55;3.25;;;20.00;68.10;;;;;;4956653;28;20198;-65
2023/05/09 12:41:05;;;;;;;3.22;3.00;;;20.00;68.20;;;;;;4969074;28;20233;-67
2023/05/09 12:43:38;;;;;;;3.17;2.97;;;20.00;68.30;;;;;;4953886;28;20276;-67
2023/05/09 12:46:05;;;;;;;3.22;3.03;;;20.00;68.40;;;;;;4956008;28;20206;-67
2023/05/09 12:48:37;;;;;;;3.10;2.80;;;20.00;68.40;;;;;;4940537;28;20174;-67
2023/05/09 12:51:05;;;;;;;3.17;2.97;;;20.00;68.40;;;;;;4955972;28;20267;-67